Airfield :
LOGIN :

Register | Disclaimer

   EN    FR    IT 

 










Legend :    VFR   Marginal VFR   IFR   Intensive IFR   Very Intensive IFR
Visi :
Ceiling :
>= 8 km
>= 3000ft
5 to 8 km
1000 to 3000 ft
1500m to 5 km
500 to 1000 ft
800 to 1500m
200 to 500 ft
< 800m
< 200 ft
Symbols :   Thunderstorms  Fog  Heavy snow  Heavy precipitations  Wind > 20 kt
SIGMETs :     Misc.  Thunderstorms  Icing  Turbulence  Mountain Waves  Volcanic Ashes







- Airport Elevation : 86 ft


LERT - Rota Navy

CURRENT METAR :
  • 181700Z 17004KT 130V220 9999 SCT025CB 18/13 Q1007 TEMPO 4000 SHRA

EXPIRED METARs :
  • 181600Z 19008KT 140V230 9999 SCT025CB 18/12 Q1007 TEMPO 4000 SHRA
  • 181500Z VRB04KT 9999 BKN025CB 18/13 Q1007 TEMPO 4000 SHRA

TAF TAF LERT
Valid from the 18 at 18:00 until the 19 at 03:00 UTC


181700Z 1818/1903 12005KT 9999 FEW025
PROB40
TEMPO 1818/1820 4000 SHRA SCT020CB
No reported NOTAMs for that airfield.
5 SIGMETs reported for the Madrid FIR (LECM) :
 
Embedded thunderstorms
LECM SIGMET 15 VALID 181630/181800 LEVA
LECM MADRID FIR/UIR EMBD TS OBS AT 1630Z WI N3940 W007 - N3940 W00350 - N3840 W00330 - N3820 W007 - N3940 W007 TOP FL320 MOV WSW 20KT NC=
SIGMET 13 cancelation
LECM SIGMET 14 VALID 181628/181800 LEVA
LECM MADRID FIR/UIR CNL SIGMET 13 VALID 181619/182800=
SIGMET 13  CANCELED :
Embedded thunderstorms
LECM SIGMET 13 VALID 181619/182800 LEVA
LECM MADRID FIR/UIR EMBD TS OBS AT 1619Z WI N3930 W007 - N3950 W00310 - N3830 W003 - N3810 W007 - N3930 W007 TOP FL320 MOV ESE 20KT NC=
Embedded thunderstorms
LECM SIGMET 13 VALID 181619/181800 LEVA
LECM MADRID FIR/UIR EMBD TS OBS AT 1619Z WI N3930 W007 - N3950 W00310 - N3830 W003 - N3810 W007 - N3930 W007 TOP FL320 MOV ESE 20KT NC=
Severe turbulence
LECM SIGMET 12 VALID 181500/181900 LEVA
LECM MADRID FIR/UIR SEV TURB OBS AT 1452Z S OF LINE N3630 W00720 - N3710 W00150 FL200/320 MOV E 20KT NC=



MET'MAP, your aeronautical weather chart ! - Copyright ORBIFLY December 2007 - Disclaimer

ORBIFLY MET'MAP TEAM :

Programming & Development : Alexandra Zaïnal
Concept & Development : Baudouin d'Aumeries
Co-Development & Prog : Marc-Olivier Méhu
Technical & hardware support : Manuel Goepfert

Contact : metmap@orbifly.com




SOURCES & CREDITS :

   NOAA